sensor_id;sensor_type;location;lat;lon;timestamp;P1;durP1;ratioP1;P2;durP2;ratioP2
37945;SDS011;23769;52.478;13.448;2024-03-23T00:54:04;16.08;;;3.08;;
37945;SDS011;23769;52.478;13.448;2024-03-23T00:56:31;12.70;;;2.47;;
37945;SDS011;23769;52.478;13.448;2024-03-23T00:58:57;14.48;;;2.80;;
37945;SDS011;23769;52.478;13.448;2024-03-23T01:01:24;17.17;;;2.38;;
37945;SDS011;23769;52.478;13.448;2024-03-23T01:03:50;13.02;;;2.40;;
37945;SDS011;23769;52.478;13.448;2024-03-23T01:06:18;12.65;;;2.80;;
37945;SDS011;23769;52.478;13.448;2024-03-23T01:08:44;11.25;;;2.65;;
37945;SDS011;23769;52.478;13.448;2024-03-23T01:11:12;17.30;;;4.00;;
37945;SDS011;23769;52.478;13.448;2024-03-23T01:13:39;14.85;;;3.58;;
37945;SDS011;23769;52.478;13.448;2024-03-23T01:16:06;18.20;;;2.85;;
37945;SDS011;23769;52.478;13.448;2024-03-23T01:18:32;21.63;;;3.58;;
37945;SDS011;23769;52.478;13.448;2024-03-23T01:20:59;13.00;;;3.10;;
37945;SDS011;23769;52.478;13.448;2024-03-23T01:23:26;18.83;;;4.25;;
37945;SDS011;23769;52.478;13.448;2024-03-23T01:25:53;9.77;;;2.83;;
37945;SDS011;23769;52.478;13.448;2024-03-23T01:28:22;9.80;;;2.75;;
37945;SDS011;23769;52.478;13.448;2024-03-23T01:30:48;15.05;;;2.97;;
37945;SDS011;23769;52.478;13.448;2024-03-23T01:33:16;18.75;;;3.67;;
37945;SDS011;23769;52.478;13.448;2024-03-23T01:35:42;19.35;;;4.13;;
37945;SDS011;23769;52.478;13.448;2024-03-23T01:38:09;18.67;;;3.78;;
37945;SDS011;23769;52.478;13.448;2024-03-23T01:40:35;16.23;;;3.30;;
37945;SDS011;23769;52.478;13.448;2024-03-23T01:43:03;16.40;;;3.22;;
37945;SDS011;23769;52.478;13.448;2024-03-23T01:45:31;21.08;;;3.90;;
37945;SDS011;23769;52.478;13.448;2024-03-23T01:47:58;18.17;;;3.65;;
37945;SDS011;23769;52.478;13.448;2024-03-23T01:50:25;16.20;;;3.60;;
37945;SDS011;23769;52.478;13.448;2024-03-23T01:52:52;16.67;;;3.60;;
37945;SDS011;23769;52.478;13.448;2024-03-23T01:55:19;15.70;;;3.25;;
37945;SDS011;23769;52.478;13.448;2024-03-23T01:57:46;17.85;;;4.40;;
37945;SDS011;23769;52.478;13.448;2024-03-23T02:00:13;14.98;;;3.33;;
37945;SDS011;23769;52.478;13.448;2024-03-23T02:02:43;17.15;;;3.75;;
37945;SDS011;23769;52.478;13.448;2024-03-23T02:05:09;17.75;;;3.50;;
37945;SDS011;23769;52.478;13.448;2024-03-23T02:07:37;18.73;;;3.70;;
37945;SDS011;23769;52.478;13.448;2024-03-23T02:10:04;12.05;;;2.95;;
37945;SDS011;23769;52.478;13.448;2024-03-23T02:12:31;13.30;;;3.22;;
37945;SDS011;23769;52.478;13.448;2024-03-23T02:14:57;11.70;;;2.75;;
37945;SDS011;23769;52.478;13.448;2024-03-23T02:17:24;12.43;;;3.33;;
37945;SDS011;23769;52.478;13.448;2024-03-23T02:19:52;16.35;;;3.47;;
37945;SDS011;23769;52.478;13.448;2024-03-23T02:22:19;10.85;;;3.10;;
37945;SDS011;23769;52.478;13.448;2024-03-23T02:24:47;16.58;;;3.55;;
37945;SDS011;23769;52.478;13.448;2024-03-23T02:27:14;15.88;;;3.50;;
37945;SDS011;23769;52.478;13.448;2024-03-23T02:29:40;14.55;;;2.40;;
37945;SDS011;23769;52.478;13.448;2024-03-23T02:32:07;11.65;;;2.90;;
37945;SDS011;23769;52.478;13.448;2024-03-23T02:34:34;8.90;;;2.83;;
37945;SDS011;23769;52.478;13.448;2024-03-23T02:37:01;15.95;;;3.70;;
37945;SDS011;23769;52.478;13.448;2024-03-23T02:39:27;16.38;;;3.55;;
37945;SDS011;23769;52.478;13.448;2024-03-23T02:41:56;10.50;;;2.60;;
37945;SDS011;23769;52.478;13.448;2024-03-23T02:44:22;17.95;;;3.35;;
37945;SDS011;23769;52.478;13.448;2024-03-23T02:46:49;17.35;;;3.78;;
37945;SDS011;23769;52.478;13.448;2024-03-23T02:49:15;12.10;;;3.55;;
37945;SDS011;23769;52.478;13.448;2024-03-23T02:51:43;17.25;;;3.78;;
37945;SDS011;23769;52.478;13.448;2024-03-23T02:54:10;14.35;;;3.67;;
37945;SDS011;23769;52.478;13.448;2024-03-23T02:56:37;12.18;;;4.07;;
37945;SDS011;23769;52.478;13.448;2024-03-23T02:59:05;18.45;;;4.28;;
37945;SDS011;23769;52.478;13.448;2024-03-23T03:04:06;16.13;;;4.13;;
37945;SDS011;23769;52.478;13.448;2024-03-23T03:06:34;20.42;;;6.88;;
37945;SDS011;23769;52.478;13.448;2024-03-23T03:09:00;15.73;;;4.70;;
37945;SDS011;23769;52.478;13.448;2024-03-23T03:11:27;20.60;;;5.30;;
37945;SDS011;23769;52.478;13.448;2024-03-23T03:13:53;18.90;;;5.32;;
37945;SDS011;23769;52.478;13.448;2024-03-23T03:16:22;16.35;;;4.32;;
37945;SDS011;23769;52.478;13.448;2024-03-23T03:18:48;14.43;;;3.75;;
37945;SDS011;23769;52.478;13.448;2024-03-23T03:21:17;15.13;;;3.47;;
37945;SDS011;23769;52.478;13.448;2024-03-23T03:23:44;12.50;;;3.55;;
37945;SDS011;23769;52.478;13.448;2024-03-23T03:26:12;18.65;;;4.18;;
37945;SDS011;23769;52.478;13.448;2024-03-23T03:28:39;14.38;;;3.28;;
37945;SDS011;23769;52.478;13.448;2024-03-23T03:31:06;16.67;;;4.07;;
37945;SDS011;23769;52.478;13.448;2024-03-23T03:33:34;14.70;;;3.25;;
37945;SDS011;23769;52.478;13.448;2024-03-23T03:36:01;14.20;;;3.53;;
37945;SDS011;23769;52.478;13.448;2024-03-23T03:38:27;16.30;;;4.25;;
37945;SDS011;23769;52.478;13.448;2024-03-23T03:40:54;17.48;;;3.53;;
37945;SDS011;23769;52.478;13.448;2024-03-23T03:43:21;16.08;;;3.28;;
37945;SDS011;23769;52.478;13.448;2024-03-23T03:45:51;24.48;;;4.22;;
37945;SDS011;23769;52.478;13.448;2024-03-23T03:48:17;20.38;;;4.18;;
37945;SDS011;23769;52.478;13.448;2024-03-23T03:50:46;12.90;;;3.80;;
37945;SDS011;23769;52.478;13.448;2024-03-23T03:53:12;16.67;;;3.50;;
37945;SDS011;23769;52.478;13.448;2024-03-23T03:55:39;15.02;;;3.75;;
37945;SDS011;23769;52.478;13.448;2024-03-23T03:58:06;16.50;;;4.68;;
37945;SDS011;23769;52.478;13.448;2024-03-23T04:00:33;12.73;;;3.20;;
37945;SDS011;23769;52.478;13.448;2024-03-23T04:02:59;9.82;;;2.72;;
37945;SDS011;23769;52.478;13.448;2024-03-23T04:05:26;14.82;;;4.20;;
37945;SDS011;23769;52.478;13.448;2024-03-23T04:07:54;14.15;;;3.67;;
37945;SDS011;23769;52.478;13.448;2024-03-23T04:10:21;17.58;;;4.25;;
37945;SDS011;23769;52.478;13.448;2024-03-23T04:12:47;14.75;;;4.03;;
37945;SDS011;23769;52.478;13.448;2024-03-23T04:15:15;13.90;;;3.35;;
37945;SDS011;23769;52.478;13.448;2024-03-23T04:17:41;12.90;;;4.28;;
37945;SDS011;23769;52.478;13.448;2024-03-23T04:20:09;16.00;;;4.13;;
37945;SDS011;23769;52.478;13.448;2024-03-23T04:22:36;18.00;;;4.30;;
37945;SDS011;23769;52.478;13.448;2024-03-23T04:25:05;19.02;;;3.80;;
37945;SDS011;23769;52.478;13.448;2024-03-23T04:27:31;14.30;;;3.78;;
37945;SDS011;23769;52.478;13.448;2024-03-23T04:29:59;13.18;;;3.20;;
37945;SDS011;23769;52.478;13.448;2024-03-23T04:32:26;13.18;;;3.50;;
37945;SDS011;23769;52.478;13.448;2024-03-23T04:34:54;11.68;;;2.42;;
37945;SDS011;23769;52.478;13.448;2024-03-23T04:37:20;11.32;;;2.70;;
37945;SDS011;23769;52.478;13.448;2024-03-23T04:39:47;9.18;;;2.42;;
37945;SDS011;23769;52.478;13.448;2024-03-23T04:42:16;10.90;;;1.80;;
37945;SDS011;23769;52.478;13.448;2024-03-23T04:44:43;8.52;;;1.85;;
37945;SDS011;23769;52.478;13.448;2024-03-23T04:47:10;8.25;;;1.70;;
37945;SDS011;23769;52.478;13.448;2024-03-23T04:49:37;7.20;;;1.92;;
37945;SDS011;23769;52.478;13.448;2024-03-23T04:52:04;6.57;;;1.83;;
37945;SDS011;23769;52.478;13.448;2024-03-23T04:54:31;8.68;;;2.20;;
37945;SDS011;23769;52.478;13.448;2024-03-23T04:56:59;9.52;;;2.25;;
37945;SDS011;23769;52.478;13.448;2024-03-23T04:59:26;8.38;;;1.83;;
37945;SDS011;23769;52.478;13.448;2024-03-23T05:01:54;8.85;;;2.15;;
37945;SDS011;23769;52.478;13.448;2024-03-23T05:04:20;6.78;;;2.03;;
37945;SDS011;23769;52.478;13.448;2024-03-23T05:06:48;6.28;;;1.50;;
37945;SDS011;23769;52.478;13.448;2024-03-23T05:09:14;7.78;;;1.95;;
37945;SDS011;23769;52.478;13.448;2024-03-23T05:11:42;9.65;;;1.40;;
37945;SDS011;23769;52.478;13.448;2024-03-23T05:14:08;6.82;;;1.77;;
37945;SDS011;23769;52.478;13.448;2024-03-23T05:16:36;6.93;;;1.75;;
37945;SDS011;23769;52.478;13.448;2024-03-23T05:19:03;8.45;;;1.65;;
37945;SDS011;23769;52.478;13.448;2024-03-23T05:21:30;6.97;;;1.60;;
37945;SDS011;23769;52.478;13.448;2024-03-23T05:23:56;6.70;;;1.80;;
37945;SDS011;23769;52.478;13.448;2024-03-23T05:26:23;8.95;;;1.85;;
37945;SDS011;23769;52.478;13.448;2024-03-23T05:28:50;7.93;;;1.70;;
37945;SDS011;23769;52.478;13.448;2024-03-23T05:31:22;9.10;;;2.15;;
37945;SDS011;23769;52.478;13.448;2024-03-23T05:33:50;6.47;;;1.65;;
37945;SDS011;23769;52.478;13.448;2024-03-23T05:36:17;7.32;;;1.80;;
37945;SDS011;23769;52.478;13.448;2024-03-23T05:38:44;9.35;;;1.90;;
37945;SDS011;23769;52.478;13.448;2024-03-23T05:41:11;9.48;;;2.33;;
37945;SDS011;23769;52.478;13.448;2024-03-23T05:43:37;6.70;;;1.70;;
37945;SDS011;23769;52.478;13.448;2024-03-23T05:46:05;8.32;;;1.60;;
37945;SDS011;23769;52.478;13.448;2024-03-23T05:48:31;7.22;;;1.85;;
37945;SDS011;23769;52.478;13.448;2024-03-23T05:51:00;5.93;;;1.73;;
37945;SDS011;23769;52.478;13.448;2024-03-23T05:53:26;7.15;;;2.47;;
37945;SDS011;23769;52.478;13.448;2024-03-23T05:55:59;8.43;;;2.88;;
37945;SDS011;23769;52.478;13.448;2024-03-23T05:58:26;12.45;;;3.50;;
37945;SDS011;23769;52.478;13.448;2024-03-23T06:00:56;15.57;;;2.95;;
37945;SDS011;23769;52.478;13.448;2024-03-23T06:03:23;11.55;;;2.88;;
37945;SDS011;23769;52.478;13.448;2024-03-23T06:05:50;6.07;;;2.35;;
37945;SDS011;23769;52.478;13.448;2024-03-23T06:08:19;12.45;;;2.53;;
37945;SDS011;23769;52.478;13.448;2024-03-23T06:10:46;7.85;;;2.42;;
37945;SDS011;23769;52.478;13.448;2024-03-23T06:13:12;8.65;;;2.50;;
37945;SDS011;23769;52.478;13.448;2024-03-23T06:15:40;10.05;;;2.92;;
37945;SDS011;23769;52.478;13.448;2024-03-23T06:18:06;10.38;;;3.03;;
37945;SDS011;23769;52.478;13.448;2024-03-23T06:20:33;10.40;;;3.53;;
37945;SDS011;23769;52.478;13.448;2024-03-23T06:23:00;8.38;;;2.85;;
37945;SDS011;23769;52.478;13.448;2024-03-23T06:25:29;7.40;;;3.22;;
37945;SDS011;23769;52.478;13.448;2024-03-23T06:27:55;9.35;;;2.72;;
37945;SDS011;23769;52.478;13.448;2024-03-23T06:30:24;10.30;;;2.35;;
37945;SDS011;23769;52.478;13.448;2024-03-23T06:32:51;9.90;;;3.15;;
37945;SDS011;23769;52.478;13.448;2024-03-23T06:35:19;9.90;;;3.35;;
37945;SDS011;23769;52.478;13.448;2024-03-23T06:37:45;12.32;;;3.70;;
37945;SDS011;23769;52.478;13.448;2024-03-23T06:40:12;7.78;;;2.65;;
37945;SDS011;23769;52.478;13.448;2024-03-23T06:42:40;31.08;;;15.43;;
37945;SDS011;23769;52.478;13.448;2024-03-23T06:45:08;18.05;;;5.70;;
37945;SDS011;23769;52.478;13.448;2024-03-23T06:47:34;14.05;;;3.22;;
37945;SDS011;23769;52.478;13.448;2024-03-23T06:50:02;15.65;;;3.67;;
37945;SDS011;23769;52.478;13.448;2024-03-23T06:52:28;7.47;;;2.75;;
37945;SDS011;23769;52.478;13.448;2024-03-23T06:54:56;12.98;;;2.38;;
37945;SDS011;23769;52.478;13.448;2024-03-23T06:57:23;8.27;;;2.03;;
37945;SDS011;23769;52.478;13.448;2024-03-23T06:59:51;9.57;;;2.53;;
37945;SDS011;23769;52.478;13.448;2024-03-23T07:02:17;12.23;;;2.63;;
37945;SDS011;23769;52.478;13.448;2024-03-23T07:04:45;9.10;;;2.45;;
37945;SDS011;23769;52.478;13.448;2024-03-23T07:07:11;10.68;;;2.70;;
37945;SDS011;23769;52.478;13.448;2024-03-23T07:09:38;9.98;;;2.47;;
37945;SDS011;23769;52.478;13.448;2024-03-23T07:12:04;8.15;;;2.25;;
37945;SDS011;23769;52.478;13.448;2024-03-23T07:14:32;8.48;;;2.05;;
37945;SDS011;23769;52.478;13.448;2024-03-23T07:16:59;7.43;;;2.25;;
37945;SDS011;23769;52.478;13.448;2024-03-23T07:19:27;7.38;;;1.88;;
37945;SDS011;23769;52.478;13.448;2024-03-23T07:21:53;10.10;;;2.40;;
37945;SDS011;23769;52.478;13.448;2024-03-23T07:24:20;5.85;;;2.08;;
37945;SDS011;23769;52.478;13.448;2024-03-23T07:26:47;9.15;;;2.00;;
37945;SDS011;23769;52.478;13.448;2024-03-23T07:29:19;8.43;;;2.70;;
37945;SDS011;23769;52.478;13.448;2024-03-23T07:31:45;8.60;;;2.38;;
37945;SDS011;23769;52.478;13.448;2024-03-23T07:34:13;6.32;;;1.90;;
37945;SDS011;23769;52.478;13.448;2024-03-23T07:36:40;8.32;;;2.47;;
37945;SDS011;23769;52.478;13.448;2024-03-23T07:39:07;7.28;;;2.03;;
37945;SDS011;23769;52.478;13.448;2024-03-23T07:41:33;8.35;;;2.00;;
37945;SDS011;23769;52.478;13.448;2024-03-23T07:44:01;6.88;;;1.92;;
37945;SDS011;23769;52.478;13.448;2024-03-23T07:46:27;9.05;;;2.50;;
37945;SDS011;23769;52.478;13.448;2024-03-23T07:48:54;9.43;;;3.10;;
37945;SDS011;23769;52.478;13.448;2024-03-23T07:51:22;8.95;;;2.35;;
37945;SDS011;23769;52.478;13.448;2024-03-23T07:53:50;8.40;;;2.33;;
37945;SDS011;23769;52.478;13.448;2024-03-23T07:56:17;14.05;;;5.95;;
37945;SDS011;23769;52.478;13.448;2024-03-23T07:58:45;22.75;;;7.57;;
37945;SDS011;23769;52.478;13.448;2024-03-23T08:01:11;9.88;;;2.60;;
37945;SDS011;23769;52.478;13.448;2024-03-23T08:03:39;7.28;;;2.35;;
37945;SDS011;23769;52.478;13.448;2024-03-23T08:06:06;7.35;;;2.53;;
37945;SDS011;23769;52.478;13.448;2024-03-23T08:08:35;9.63;;;2.40;;
37945;SDS011;23769;52.478;13.448;2024-03-23T08:11:01;9.57;;;2.58;;
37945;SDS011;23769;52.478;13.448;2024-03-23T08:13:29;5.30;;;1.90;;
37945;SDS011;23769;52.478;13.448;2024-03-23T08:15:56;3.65;;;1.77;;
37945;SDS011;23769;52.478;13.448;2024-03-23T08:18:23;5.32;;;2.15;;
37945;SDS011;23769;52.478;13.448;2024-03-23T08:20:56;6.25;;;2.30;;
37945;SDS011;23769;52.478;13.448;2024-03-23T08:23:24;10.05;;;2.42;;
37945;SDS011;23769;52.478;13.448;2024-03-23T08:25:52;8.13;;;1.85;;
37945;SDS011;23769;52.478;13.448;2024-03-23T08:28:20;5.88;;;1.70;;
37945;SDS011;23769;52.478;13.448;2024-03-23T08:30:46;5.57;;;1.60;;
37945;SDS011;23769;52.478;13.448;2024-03-23T08:33:14;8.85;;;1.70;;
37945;SDS011;23769;52.478;13.448;2024-03-23T08:35:41;6.43;;;1.50;;
37945;SDS011;23769;52.478;13.448;2024-03-23T08:38:08;8.15;;;2.30;;
37945;SDS011;23769;52.478;13.448;2024-03-23T08:40:34;6.00;;;1.48;;
37945;SDS011;23769;52.478;13.448;2024-03-23T08:43:03;4.97;;;1.75;;
37945;SDS011;23769;52.478;13.448;2024-03-23T08:45:29;6.65;;;1.90;;
37945;SDS011;23769;52.478;13.448;2024-03-23T08:47:56;7.28;;;1.73;;
37945;SDS011;23769;52.478;13.448;2024-03-23T08:50:26;11.50;;;2.25;;
37945;SDS011;23769;52.478;13.448;2024-03-23T08:52:53;12.20;;;2.13;;
37945;SDS011;23769;52.478;13.448;2024-03-23T08:55:19;9.50;;;2.25;;
37945;SDS011;23769;52.478;13.448;2024-03-23T08:57:46;12.27;;;2.78;;
37945;SDS011;23769;52.478;13.448;2024-03-23T09:00:14;4.30;;;1.63;;
37945;SDS011;23769;52.478;13.448;2024-03-23T09:02:42;9.48;;;2.10;;
37945;SDS011;23769;52.478;13.448;2024-03-23T09:05:08;5.85;;;1.52;;
37945;SDS011;23769;52.478;13.448;2024-03-23T09:07:37;5.22;;;1.75;;
37945;SDS011;23769;52.478;13.448;2024-03-23T09:10:03;7.38;;;1.75;;
37945;SDS011;23769;52.478;13.448;2024-03-23T09:12:30;7.07;;;2.35;;
37945;SDS011;23769;52.478;13.448;2024-03-23T09:14:57;6.95;;;1.70;;
37945;SDS011;23769;52.478;13.448;2024-03-23T09:17:25;5.88;;;2.15;;
37945;SDS011;23769;52.478;13.448;2024-03-23T09:19:52;5.40;;;1.67;;
37945;SDS011;23769;52.478;13.448;2024-03-23T09:22:19;6.10;;;2.17;;
37945;SDS011;23769;52.478;13.448;2024-03-23T09:24:45;5.03;;;1.52;;
37945;SDS011;23769;52.478;13.448;2024-03-23T09:27:13;6.40;;;1.77;;
37945;SDS011;23769;52.478;13.448;2024-03-23T09:29:39;7.78;;;1.60;;
37945;SDS011;23769;52.478;13.448;2024-03-23T09:32:07;5.82;;;1.70;;
37945;SDS011;23769;52.478;13.448;2024-03-23T09:34:35;5.82;;;2.17;;
37945;SDS011;23769;52.478;13.448;2024-03-23T09:37:02;6.50;;;2.20;;
37945;SDS011;23769;52.478;13.448;2024-03-23T09:39:28;8.73;;;1.67;;
37945;SDS011;23769;52.478;13.448;2024-03-23T09:41:57;5.70;;;1.60;;
37945;SDS011;23769;52.478;13.448;2024-03-23T09:44:24;5.65;;;1.55;;
37945;SDS011;23769;52.478;13.448;2024-03-23T09:46:54;5.50;;;1.70;;
37945;SDS011;23769;52.478;13.448;2024-03-23T09:49:20;6.07;;;1.50;;
37945;SDS011;23769;52.478;13.448;2024-03-23T09:51:49;7.13;;;2.00;;
37945;SDS011;23769;52.478;13.448;2024-03-23T09:54:16;7.95;;;1.83;;
37945;SDS011;23769;52.478;13.448;2024-03-23T09:56:43;4.95;;;1.98;;
37945;SDS011;23769;52.478;13.448;2024-03-23T09:59:09;6.03;;;1.60;;
37945;SDS011;23769;52.478;13.448;2024-03-23T10:01:37;7.55;;;1.98;;
37945;SDS011;23769;52.478;13.448;2024-03-23T10:04:03;12.57;;;3.05;;
37945;SDS011;23769;52.478;13.448;2024-03-23T10:06:30;6.88;;;2.03;;
37945;SDS011;23769;52.478;13.448;2024-03-23T10:08:58;9.73;;;2.35;;
37945;SDS011;23769;52.478;13.448;2024-03-23T10:11:25;9.35;;;2.75;;
37945;SDS011;23769;52.478;13.448;2024-03-23T10:13:52;10.55;;;2.17;;
37945;SDS011;23769;52.478;13.448;2024-03-23T10:16:22;9.07;;;2.38;;
37945;SDS011;23769;52.478;13.448;2024-03-23T10:18:49;9.80;;;2.20;;
37945;SDS011;23769;52.478;13.448;2024-03-23T10:21:16;8.75;;;2.17;;
37945;SDS011;23769;52.478;13.448;2024-03-23T10:23:43;10.07;;;2.38;;
37945;SDS011;23769;52.478;13.448;2024-03-23T10:26:21;11.90;;;2.38;;
37945;SDS011;23769;52.478;13.448;2024-03-23T10:28:54;7.78;;;2.00;;
37945;SDS011;23769;52.478;13.448;2024-03-23T10:31:26;8.88;;;1.92;;
37945;SDS011;23769;52.478;13.448;2024-03-23T10:33:52;9.07;;;2.33;;
37945;SDS011;23769;52.478;13.448;2024-03-23T10:36:20;8.25;;;1.90;;
37945;SDS011;23769;52.478;13.448;2024-03-23T10:38:47;6.20;;;1.83;;
37945;SDS011;23769;52.478;13.448;2024-03-23T10:41:14;8.82;;;2.13;;
37945;SDS011;23769;52.478;13.448;2024-03-23T10:43:42;9.02;;;2.20;;
37945;SDS011;23769;52.478;13.448;2024-03-23T10:46:10;10.43;;;2.90;;
37945;SDS011;23769;52.478;13.448;2024-03-23T10:48:36;13.82;;;3.17;;
37945;SDS011;23769;52.478;13.448;2024-03-23T10:51:04;12.35;;;2.80;;
37945;SDS011;23769;52.478;13.448;2024-03-23T10:53:31;6.10;;;1.90;;
37945;SDS011;23769;52.478;13.448;2024-03-23T10:56:00;10.60;;;2.60;;
37945;SDS011;23769;52.478;13.448;2024-03-23T10:58:28;10.88;;;2.03;;
37945;SDS011;23769;52.478;13.448;2024-03-23T11:00:58;8.43;;;2.50;;
37945;SDS011;23769;52.478;13.448;2024-03-23T11:03:34;11.02;;;2.38;;
37945;SDS011;23769;52.478;13.448;2024-03-23T11:06:02;9.27;;;2.22;;
37945;SDS011;23769;52.478;13.448;2024-03-23T11:08:32;6.97;;;2.03;;
37945;SDS011;23769;52.478;13.448;2024-03-23T11:11:13;6.65;;;2.10;;
37945;SDS011;23769;52.478;13.448;2024-03-23T11:13:39;8.45;;;2.08;;
37945;SDS011;23769;52.478;13.448;2024-03-23T11:16:15;6.28;;;2.30;;
37945;SDS011;23769;52.478;13.448;2024-03-23T11:18:41;11.38;;;2.72;;
37945;SDS011;23769;52.478;13.448;2024-03-23T11:21:10;10.07;;;2.45;;
37945;SDS011;23769;52.478;13.448;2024-03-23T11:23:36;8.10;;;2.60;;
37945;SDS011;23769;52.478;13.448;2024-03-23T11:26:06;5.07;;;1.98;;
37945;SDS011;23769;52.478;13.448;2024-03-23T11:28:33;9.00;;;2.75;;
37945;SDS011;23769;52.478;13.448;2024-03-23T11:31:00;8.73;;;2.08;;
37945;SDS011;23769;52.478;13.448;2024-03-23T11:33:28;7.22;;;2.42;;
37945;SDS011;23769;52.478;13.448;2024-03-23T11:35:55;11.63;;;3.22;;
37945;SDS011;23769;52.478;13.448;2024-03-23T11:38:22;10.30;;;3.45;;
37945;SDS011;23769;52.478;13.448;2024-03-23T11:40:49;9.77;;;2.67;;
37945;SDS011;23769;52.478;13.448;2024-03-23T11:43:16;5.63;;;2.10;;
37945;SDS011;23769;52.478;13.448;2024-03-23T11:45:44;7.78;;;2.00;;
37945;SDS011;23769;52.478;13.448;2024-03-23T11:48:11;7.88;;;3.00;;
37945;SDS011;23769;52.478;13.448;2024-03-23T11:50:40;9.52;;;2.13;;
37945;SDS011;23769;52.478;13.448;2024-03-23T11:53:12;8.25;;;2.30;;
37945;SDS011;23769;52.478;13.448;2024-03-23T11:55:41;10.82;;;2.58;;
37945;SDS011;23769;52.478;13.448;2024-03-23T11:58:07;8.40;;;2.63;;
37945;SDS011;23769;52.478;13.448;2024-03-23T12:00:34;9.80;;;2.45;;
37945;SDS011;23769;52.478;13.448;2024-03-23T12:03:01;5.05;;;2.17;;
37945;SDS011;23769;52.478;13.448;2024-03-23T12:05:28;6.50;;;1.90;;
37945;SDS011;23769;52.478;13.448;2024-03-23T12:07:56;8.60;;;2.40;;
37945;SDS011;23769;52.478;13.448;2024-03-23T12:10:43;5.72;;;1.95;;
37945;SDS011;23769;52.478;13.448;2024-03-23T12:13:09;5.47;;;1.63;;
37945;SDS011;23769;52.478;13.448;2024-03-23T12:15:36;5.75;;;1.50;;
37945;SDS011;23769;52.478;13.448;2024-03-23T12:18:06;5.88;;;1.83;;
37945;SDS011;23769;52.478;13.448;2024-03-23T12:20:33;4.70;;;1.20;;
37945;SDS011;23769;52.478;13.448;2024-03-23T12:23:08;5.43;;;1.65;;
37945;SDS011;23769;52.478;13.448;2024-03-23T12:25:36;6.25;;;1.70;;
37945;SDS011;23769;52.478;13.448;2024-03-23T12:28:03;7.13;;;2.45;;
37945;SDS011;23769;52.478;13.448;2024-03-23T12:30:31;8.20;;;2.15;;
37945;SDS011;23769;52.478;13.448;2024-03-23T12:32:58;7.55;;;2.45;;
37945;SDS011;23769;52.478;13.448;2024-03-23T12:35:25;12.93;;;2.08;;
37945;SDS011;23769;52.478;13.448;2024-03-23T12:37:51;5.72;;;1.50;;
37945;SDS011;23769;52.478;13.448;2024-03-23T12:40:20;7.35;;;1.60;;
37945;SDS011;23769;52.478;13.448;2024-03-23T12:42:46;9.40;;;2.05;;
37945;SDS011;23769;52.478;13.448;2024-03-23T12:45:13;7.00;;;1.88;;
37945;SDS011;23769;52.478;13.448;2024-03-23T12:47:40;5.25;;;1.85;;
37945;SDS011;23769;52.478;13.448;2024-03-23T12:50:07;8.68;;;2.13;;
37945;SDS011;23769;52.478;13.448;2024-03-23T12:52:34;7.95;;;2.25;;
37945;SDS011;23769;52.478;13.448;2024-03-23T12:55:02;7.68;;;1.73;;
37945;SDS011;23769;52.478;13.448;2024-03-23T12:57:31;7.35;;;2.00;;
37945;SDS011;23769;52.478;13.448;2024-03-23T12:59:59;7.90;;;1.73;;
37945;SDS011;23769;52.478;13.448;2024-03-23T13:02:25;6.50;;;2.15;;
37945;SDS011;23769;52.478;13.448;2024-03-23T13:04:53;9.38;;;1.70;;
37945;SDS011;23769;52.478;13.448;2024-03-23T13:07:20;5.90;;;1.60;;
37945;SDS011;23769;52.478;13.448;2024-03-23T13:09:49;5.20;;;1.45;;
37945;SDS011;23769;52.478;13.448;2024-03-23T13:12:15;5.28;;;1.85;;
37945;SDS011;23769;52.478;13.448;2024-03-23T13:14:45;11.52;;;4.13;;
37945;SDS011;23769;52.478;13.448;2024-03-23T13:17:11;7.03;;;2.13;;
37945;SDS011;23769;52.478;13.448;2024-03-23T13:19:38;6.25;;;2.17;;
37945;SDS011;23769;52.478;13.448;2024-03-23T13:22:04;5.80;;;2.38;;
37945;SDS011;23769;52.478;13.448;2024-03-23T13:24:32;7.43;;;2.17;;
37945;SDS011;23769;52.478;13.448;2024-03-23T13:26:58;5.40;;;2.22;;
37945;SDS011;23769;52.478;13.448;2024-03-23T13:29:25;6.55;;;1.80;;
37945;SDS011;23769;52.478;13.448;2024-03-23T13:31:53;6.18;;;1.95;;
37945;SDS011;23769;52.478;13.448;2024-03-23T13:34:20;7.88;;;2.15;;
37945;SDS011;23769;52.478;13.448;2024-03-23T13:36:47;4.47;;;1.45;;
37945;SDS011;23769;52.478;13.448;2024-03-23T13:39:14;4.95;;;1.70;;
37945;SDS011;23769;52.478;13.448;2024-03-23T13:41:41;6.40;;;1.98;;
37945;SDS011;23769;52.478;13.448;2024-03-23T13:44:09;6.22;;;3.03;;
37945;SDS011;23769;52.478;13.448;2024-03-23T13:46:37;7.25;;;2.13;;
37945;SDS011;23769;52.478;13.448;2024-03-23T13:49:04;8.05;;;2.30;;
37945;SDS011;23769;52.478;13.448;2024-03-23T13:51:32;7.63;;;2.20;;
37945;SDS011;23769;52.478;13.448;2024-03-23T13:53:58;6.28;;;2.00;;
37945;SDS011;23769;52.478;13.448;2024-03-23T13:56:26;7.00;;;2.05;;
37945;SDS011;23769;52.478;13.448;2024-03-23T13:58:53;7.95;;;2.00;;
37945;SDS011;23769;52.478;13.448;2024-03-23T14:01:21;7.43;;;2.08;;
37945;SDS011;23769;52.478;13.448;2024-03-23T14:03:47;8.20;;;2.40;;
37945;SDS011;23769;52.478;13.448;2024-03-23T14:06:16;6.43;;;2.00;;
37945;SDS011;23769;52.478;13.448;2024-03-23T14:08:42;10.02;;;2.97;;
37945;SDS011;23769;52.478;13.448;2024-03-23T14:11:09;7.75;;;2.55;;
37945;SDS011;23769;52.478;13.448;2024-03-23T14:13:35;6.53;;;2.70;;
37945;SDS011;23769;52.478;13.448;2024-03-23T14:16:03;9.52;;;2.67;;
37945;SDS011;23769;52.478;13.448;2024-03-23T14:18:29;7.00;;;2.33;;
37945;SDS011;23769;52.478;13.448;2024-03-23T14:20:57;10.02;;;2.97;;
37945;SDS011;23769;52.478;13.448;2024-03-23T14:23:28;12.30;;;2.80;;
37945;SDS011;23769;52.478;13.448;2024-03-23T14:25:58;6.93;;;2.50;;
37945;SDS011;23769;52.478;13.448;2024-03-23T14:28:24;10.98;;;3.17;;
37945;SDS011;23769;52.478;13.448;2024-03-23T14:30:51;6.65;;;2.63;;
37945;SDS011;23769;52.478;13.448;2024-03-23T14:33:20;9.75;;;2.40;;
37945;SDS011;23769;52.478;13.448;2024-03-23T14:35:51;8.88;;;2.47;;
37945;SDS011;23769;52.478;13.448;2024-03-23T14:38:18;6.63;;;2.13;;
37945;SDS011;23769;52.478;13.448;2024-03-23T14:40:47;8.10;;;2.53;;
37945;SDS011;23769;52.478;13.448;2024-03-23T14:43:14;8.45;;;3.00;;
37945;SDS011;23769;52.478;13.448;2024-03-23T14:45:48;6.97;;;2.80;;
37945;SDS011;23769;52.478;13.448;2024-03-23T14:48:31;11.98;;;3.95;;
37945;SDS011;23769;52.478;13.448;2024-03-23T14:51:00;10.57;;;2.33;;
37945;SDS011;23769;52.478;13.448;2024-03-23T14:53:27;8.48;;;2.28;;
37945;SDS011;23769;52.478;13.448;2024-03-23T14:55:56;8.88;;;3.28;;
37945;SDS011;23769;52.478;13.448;2024-03-23T14:58:22;10.23;;;3.10;;
37945;SDS011;23769;52.478;13.448;2024-03-23T15:00:50;7.28;;;2.75;;
37945;SDS011;23769;52.478;13.448;2024-03-23T15:03:17;7.90;;;2.75;;
37945;SDS011;23769;52.478;13.448;2024-03-23T15:05:51;10.20;;;3.15;;
37945;SDS011;23769;52.478;13.448;2024-03-23T15:08:17;8.60;;;3.30;;
37945;SDS011;23769;52.478;13.448;2024-03-23T15:10:45;13.10;;;5.45;;
37945;SDS011;23769;52.478;13.448;2024-03-23T15:13:12;11.45;;;5.80;;
37945;SDS011;23769;52.478;13.448;2024-03-23T15:15:39;8.30;;;3.15;;
37945;SDS011;23769;52.478;13.448;2024-03-23T15:18:08;5.00;;;1.80;;
37945;SDS011;23769;52.478;13.448;2024-03-23T15:20:37;4.50;;;1.83;;
37945;SDS011;23769;52.478;13.448;2024-03-23T15:23:04;9.13;;;3.97;;
37945;SDS011;23769;52.478;13.448;2024-03-23T15:25:31;5.70;;;2.22;;